Time;durP1;ratioP1;P1;durP2;ratioP2;P2;SDS_P1;SDS_P2;PMS_P1;PMS_P2;Temp;Humidity;BMP_temperature;BMP_pressure;BME280_temperature;BME280_humidity;BME280_pressure;Samples;Min_cycle;Max_cycle;Signal;HPM_P1;HPM_P2
2022/07/30 00:01:05;;;;;;;3.53;1.85;;;;;;;21.73;83.35;100398.88;5025786;28;20034;-60
2022/07/30 00:03:32;;;;;;;2.80;2.08;;;;;;;21.70;83.90;100391.34;5028749;28;20033;-64
2022/07/30 00:05:58;;;;;;;3.20;1.88;;;;;;;21.60;84.34;100386.56;5027414;28;20565;-62
2022/07/30 00:08:24;;;;;;;4.45;2.05;;;;;;;21.56;84.23;100392.50;5027503;28;20056;-63
2022/07/30 00:10:50;;;;;;;2.55;0.95;;;;;;;21.63;83.48;100386.13;5027367;28;20827;-62
2022/07/30 00:13:17;;;;;;;2.20;1.17;;;;;;;21.61;82.84;100371.47;5027980;28;20030;-63
2022/07/30 00:15:43;;;;;;;3.65;1.08;;;;;;;21.58;83.04;100372.69;5027762;28;20040;-62
2022/07/30 00:18:08;;;;;;;2.15;1.30;;;;;;;21.61;82.66;100369.63;5027829;28;20388;-61
2022/07/30 00:20:34;;;;;;;1.67;1.27;;;;;;;21.63;82.50;100372.06;5025638;28;20033;-60
2022/07/30 00:23:03;;;;;;;3.42;1.75;;;;;;;21.66;83.04;100382.22;5027092;28;20026;-62
2022/07/30 00:25:29;;;;;;;4.22;1.08;;;;;;;21.69;83.04;100389.75;5026661;28;20156;-63
2022/07/30 00:27:55;;;;;;;3.50;1.20;;;;;;;21.74;82.00;100389.91;5027014;28;20025;-60
2022/07/30 00:30:21;;;;;;;1.45;1.00;;;;;;;21.74;81.47;100400.50;5026471;28;20042;-62
2022/07/30 00:32:46;;;;;;;1.70;1.20;;;;;;;21.75;82.00;100391.47;5025868;28;20083;-62
2022/07/30 00:35:12;;;;;;;3.10;1.98;;;;;;;21.77;82.94;100392.06;5027724;28;21398;-61
2022/07/30 00:37:38;;;;;;;2.58;1.38;;;;;;;21.79;83.20;100392.66;5028350;28;20083;-60
2022/07/30 00:40:05;;;;;;;5.47;1.58;;;;;;;21.82;82.90;100389.56;5026453;28;20164;-61
2022/07/30 00:42:45;;;;;;;1.45;1.35;;;;;;;21.89;83.00;100392.16;5026981;28;20021;-61
2022/07/30 00:45:13;;;;;;;3.67;1.85;;;;;;;21.99;82.61;100401.25;5025373;28;20091;-63
2022/07/30 00:47:38;;;;;;;2.70;1.17;;;;;;;21.99;81.91;100403.91;5008579;28;20320;-63
2022/07/30 00:50:06;;;;;;;3.05;2.10;;;;;;;22.03;82.73;100407.75;5012416;28;20288;-61
2022/07/30 00:52:32;;;;;;;2.80;2.50;;;;;;;22.09;84.48;100414.84;5027052;28;20030;-62
2022/07/30 00:54:58;;;;;;;2.88;2.35;;;;;;;22.03;86.43;100418.38;5026906;28;20033;-62
2022/07/30 00:57:25;;;;;;;6.38;2.83;;;;;;;22.06;87.43;100425.88;5027347;28;21460;-61
2022/07/30 00:59:50;;;;;;;9.45;3.65;;;;;;;21.98;89.20;100426.16;5027042;28;20091;-61
2022/07/30 01:02:16;;;;;;;5.22;3.03;;;;;;;22.00;89.37;100425.94;5026879;28;20615;-61
2022/07/30 01:04:41;;;;;;;3.95;3.30;;;;;;;22.03;89.15;100422.88;5020328;28;20461;-62
2022/07/30 01:07:07;;;;;;;5.43;3.17;;;;;;;21.96;89.67;100414.13;5021239;28;20033;-62
2022/07/30 01:09:32;;;;;;;7.07;3.90;;;;;;;21.83;89.86;100405.28;5026771;28;20084;-61
2022/07/30 01:11:58;;;;;;;7.47;3.83;;;;;;;21.66;90.52;100396.28;5027798;28;20478;-62
2022/07/30 01:14:24;;;;;;;3.78;3.47;;;;;;;21.59;91.44;100400.03;5025523;28;20136;-63
2022/07/30 01:16:50;;;;;;;5.22;4.30;;;;;;;21.58;91.70;100395.75;5026044;28;20041;-62
2022/07/30 01:19:47;;;;;;;6.55;3.53;;;;;;;21.47;92.62;100387.47;5028381;28;20030;-61
2022/07/30 01:22:25;;;;;;;4.70;4.20;;;;;;;21.37;93.19;100383.69;5025993;28;20045;-63
2022/07/30 01:24:51;;;;;;;3.90;3.58;;;;;;;21.30;93.71;100386.38;5034692;28;20053;-60
2022/07/30 01:27:19;;;;;;;7.72;4.28;;;;;;;21.23;94.30;100383.00;5046500;28;20048;-61
2022/07/30 01:29:46;;;;;;;5.35;4.03;;;;;;;21.16;94.72;100380.38;5047266;28;20116;-63
2022/07/30 01:32:13;;;;;;;9.52;4.43;;;;;;;21.10;95.63;100386.53;5049277;28;20021;-62
2022/07/30 01:34:41;;;;;;;3.35;2.17;;;;;;;21.02;94.68;100385.97;5025116;28;20103;-63
2022/07/30 01:37:09;;;;;;;4.07;2.83;;;;;;;20.91;95.27;100384.00;5032061;28;20048;-61
2022/07/30 01:39:37;;;;;;;3.00;2.50;;;;;;;20.78;95.80;100366.41;5051317;28;20036;-63
2022/07/30 01:42:06;;;;;;;2.88;2.60;;;;;;;20.80;96.66;100362.47;5050927;28;20029;-61
2022/07/30 01:44:32;;;;;;;5.10;3.20;;;;;;;20.94;98.25;100365.03;5030187;28;20064;-64
2022/07/30 01:47:00;;;;;;;4.45;3.17;;;;;;;21.01;99.41;100368.47;5048691;28;20112;-61
2022/07/30 01:49:28;;;;;;;3.00;2.70;;;;;;;20.97;98.76;100372.56;5050848;28;20481;-61
2022/07/30 01:51:55;;;;;;;5.28;3.10;;;;;;;21.02;99.44;100370.09;5050693;28;20035;-62
2022/07/30 01:54:25;;;;;;;4.43;3.42;;;;;;;21.05;100.00;100367.00;5048633;28;20036;-62
2022/07/30 01:56:55;;;;;;;6.35;4.75;;;;;;;21.11;100.00;100366.16;5048628;28;20124;-63
2022/07/30 01:59:22;;;;;;;5.10;4.70;;;;;;;21.15;100.00;100372.66;5049500;28;20102;-64
2022/07/30 02:01:48;;;;;;;6.50;5.63;;;;;;;21.19;100.00;100371.19;5031204;28;20045;-63
2022/07/30 02:04:14;;;;;;;5.35;4.18;;;;;;;21.16;100.00;100367.13;5050905;28;20515;-63
2022/07/30 02:07:26;;;;;;;4.40;2.90;;;;;;;21.06;100.00;100368.63;5044773;28;20387;-60
2022/07/30 02:10:03;;;;;;;4.78;2.90;;;;;;;21.09;100.00;100371.66;5026300;28;20543;-64
2022/07/30 02:12:31;;;;;;;4.65;3.38;;;;;;;21.12;100.00;100368.59;5030972;28;20155;-61
2022/07/30 02:15:23;;;;;;;5.82;2.53;;;;;;;20.84;100.00;100368.97;5035014;28;20480;-61
2022/07/30 02:17:59;;;;;;;4.07;2.58;;;;;;;20.72;100.00;100364.59;5049359;28;20033;-64
2022/07/30 02:20:28;;;;;;;4.43;3.03;;;;;;;20.67;100.00;100359.94;5050235;28;20029;-63
2022/07/30 02:22:57;;;;;;;2.88;2.35;;;;;;;20.68;100.00;100356.25;5049248;28;20060;-63
2022/07/30 02:25:23;;;;;;;3.50;2.72;;;;;;;20.76;100.00;100345.44;5049885;28;20124;-60
2022/07/30 02:27:55;;;;;;;5.85;2.47;;;;;;;20.76;100.00;100349.91;5049102;28;20053;-62
2022/07/30 02:30:25;;;;;;;4.78;2.85;;;;;;;20.83;100.00;100348.00;5047196;28;20032;-62
2022/07/30 02:32:56;;;;;;;3.45;3.03;;;;;;;20.79;100.00;100346.84;5032090;28;20033;-60
2022/07/30 02:35:25;;;;;;;4.45;2.67;;;;;;;20.82;100.00;100341.91;5050114;28;20028;-62
2022/07/30 02:37:53;;;;;;;4.72;2.63;;;;;;;20.92;100.00;100340.63;5029905;28;20037;-60
2022/07/30 02:40:21;;;;;;;4.38;2.75;;;;;;;20.93;100.00;100342.25;5050081;28;20381;-61
2022/07/30 02:42:50;;;;;;;3.28;2.70;;;;;;;20.94;100.00;100344.66;5030630;28;20055;-63
2022/07/30 02:45:16;;;;;;;3.78;2.75;;;;;;;21.04;100.00;100344.19;5047771;28;20025;-62
2022/07/30 02:47:45;;;;;;;3.63;2.75;;;;;;;21.08;100.00;100340.09;5026322;28;20044;-62
2022/07/30 02:50:12;;;;;;;3.15;2.55;;;;;;;21.10;100.00;100338.84;5029962;28;20277;-63
2022/07/30 02:52:39;;;;;;;3.05;2.67;;;;;;;21.12;100.00;100338.63;5031108;28;20041;-62
2022/07/30 02:55:07;;;;;;;4.30;2.95;;;;;;;21.07;100.00;100330.53;5046832;28;20041;-62
2022/07/30 02:57:34;;;;;;;3.42;3.13;;;;;;;21.04;100.00;100330.94;5033522;28;20037;-63
2022/07/30 03:00:04;;;;;;;3.22;2.88;;;;;;;21.01;100.00;100334.84;5049634;28;20029;-60
2022/07/30 03:02:32;;;;;;;3.75;3.05;;;;;;;21.04;100.00;100337.06;5049369;28;20032;-62
2022/07/30 03:05:00;;;;;;;3.22;2.70;;;;;;;20.80;100.00;100333.34;5049509;28;20052;-61
2022/07/30 03:07:27;;;;;;;6.38;2.92;;;;;;;20.73;100.00;100332.63;5047614;28;20064;-63
2022/07/30 03:09:55;;;;;;;4.63;2.97;;;;;;;20.79;100.00;100333.59;4995451;28;20401;-64
2022/07/30 03:12:22;;;;;;;4.20;3.45;;;;;;;20.81;100.00;100334.97;5029614;28;20427;-60
2022/07/30 03:14:50;;;;;;;3.45;3.25;;;;;;;20.84;100.00;100345.16;5245526;23;20049;-83
2022/07/30 03:17:28;;;;;;;4.90;3.75;;;;;;;20.88;100.00;100346.34;5049584;28;20100;-82
2022/07/30 03:19:55;;;;;;;6.63;3.00;;;;;;;20.83;100.00;100340.06;5029457;28;20112;-82
2022/07/30 03:22:24;;;;;;;6.15;2.88;;;;;;;20.71;100.00;100349.75;5028993;28;20021;-82
2022/07/30 03:24:51;;;;;;;5.90;3.92;;;;;;;20.67;100.00;100341.41;5029029;28;20026;-82
2022/07/30 03:27:17;;;;;;;4.80;3.70;;;;;;;20.76;100.00;100341.97;5028860;28;20021;-82
2022/07/30 03:29:44;;;;;;;7.13;4.35;;;;;;;20.83;100.00;100343.53;5046442;28;20040;-82
2022/07/30 03:32:11;;;;;;;4.15;3.75;;;;;;;20.76;100.00;100336.69;5048415;28;20385;-82
2022/07/30 03:34:36;;;;;;;4.53;3.40;;;;;;;20.69;100.00;100346.50;5047784;28;20468;-83
2022/07/30 03:37:04;;;;;;;4.35;3.95;;;;;;;20.71;100.00;100349.75;5049092;28;20047;-82
2022/07/30 03:39:32;;;;;;;6.05;4.28;;;;;;;20.77;100.00;100352.34;5047567;28;20112;-82
2022/07/30 03:41:59;;;;;;;4.47;3.50;;;;;;;20.64;100.00;100348.97;5048917;28;20404;-81
2022/07/30 03:44:25;;;;;;;3.97;3.67;;;;;;;20.65;100.00;100351.41;5047684;28;20072;-82
2022/07/30 03:46:52;;;;;;;4.22;3.67;;;;;;;20.64;100.00;100357.72;5048695;28;20089;-82
2022/07/30 03:49:17;;;;;;;7.53;3.83;;;;;;;20.59;100.00;100356.72;5033850;28;20090;-83
2022/07/30 03:51:45;;;;;;;4.10;3.20;;;;;;;20.51;100.00;100357.78;5034095;28;20032;-82
2022/07/30 03:54:11;;;;;;;4.93;3.33;;;;;;;20.56;100.00;100368.53;5037340;28;20092;-82
2022/07/30 03:56:37;;;;;;;4.18;3.17;;;;;;;20.54;100.00;100373.25;5010700;28;20033;-82
2022/07/30 03:59:04;;;;;;;11.63;3.97;;;;;;;20.61;100.00;100381.97;5028652;28;20072;-82
2022/07/30 04:01:30;;;;;;;4.78;3.85;;;;;;;20.76;100.00;100379.84;5030749;28;20025;-82
2022/07/30 04:04:03;;;;;;;6.28;3.90;;;;;;;20.82;100.00;100384.25;5048348;28;20435;-81
2022/07/30 04:06:39;;;;;;;5.03;4.53;;;;;;;20.87;100.00;100388.91;5048316;28;20024;-84
2022/07/30 04:09:09;;;;;;;4.50;4.00;;;;;;;20.85;100.00;100391.78;5048310;28;20039;-83
2022/07/30 04:11:35;;;;;;;4.22;3.83;;;;;;;20.84;100.00;100390.16;5045209;28;20040;-83
2022/07/30 04:14:01;;;;;;;6.32;4.13;;;;;;;20.82;100.00;100389.56;5047015;28;20037;-82
2022/07/30 04:16:45;;;;;;;4.45;3.92;;;;;;;20.80;100.00;100393.44;5048043;28;20044;-83
2022/07/30 04:19:33;;;;;;;4.32;4.03;;;;;;;20.79;100.00;100397.16;5048058;28;20575;-83
2022/07/30 04:22:06;;;;;;;4.75;3.08;;;;;;;20.79;100.00;100408.53;5046878;28;20072;-83
2022/07/30 04:24:40;;;;;;;4.80;3.83;;;;;;;20.79;100.00;100411.19;5048105;28;20063;-83
2022/07/30 04:27:06;;;;;;;4.50;4.15;;;;;;;20.80;100.00;100415.44;5047948;28;20170;-83
2022/07/30 04:29:32;;;;;;;6.28;3.90;;;;;;;20.71;100.00;100424.69;5028854;28;20120;-83
2022/07/30 04:31:58;;;;;;;3.70;3.40;;;;;;;20.62;100.00;100433.06;5046903;28;20040;-83
2022/07/30 04:34:23;;;;;;;4.70;3.95;;;;;;;20.59;100.00;100429.00;5047985;28;20056;-83
2022/07/30 04:36:49;;;;;;;4.63;4.22;;;;;;;20.44;100.00;100434.56;5047878;28;20060;-83
2022/07/30 04:39:14;;;;;;;5.13;4.20;;;;;;;20.46;100.00;100431.69;5048012;28;20025;-83
2022/07/30 04:41:40;;;;;;;4.32;3.83;;;;;;;20.55;100.00;100430.44;5046687;28;20039;-83
2022/07/30 04:44:05;;;;;;;4.05;3.75;;;;;;;20.52;100.00;100425.56;5046864;28;20052;-83
2022/07/30 04:46:31;;;;;;;7.55;4.80;;;;;;;20.48;100.00;100425.19;5035247;28;20064;-82
2022/07/30 04:48:56;;;;;;;7.25;4.40;;;;;;;20.48;100.00;100427.81;5028100;28;20040;-84
2022/07/30 04:51:27;;;;;;;5.35;4.38;;;;;;;20.45;100.00;100427.44;5055550;28;20032;-82
2022/07/30 04:53:54;;;;;;;5.47;4.15;;;;;;;20.45;100.00;100424.78;5054546;28;20650;-83
2022/07/30 04:56:21;;;;;;;3.33;3.03;;;;;;;20.42;100.00;100419.91;5033273;28;20033;-83
2022/07/30 04:58:48;;;;;;;4.85;3.22;;;;;;;20.44;100.00;100423.16;5028050;28;20025;-84
2022/07/30 05:01:26;;;;;;;3.80;3.03;;;;;;;20.46;100.00;100424.56;5028278;28;20033;-83
2022/07/30 05:03:52;;;;;;;3.90;3.28;;;;;;;20.43;100.00;100427.63;5047689;28;20117;-84
2022/07/30 05:06:19;;;;;;;6.72;3.40;;;;;;;20.42;100.00;100425.19;5049514;28;20029;-84
2022/07/30 05:09:02;;;;;;;4.00;3.30;;;;;;;20.40;100.00;100421.94;5051736;28;20021;-82
2022/07/30 05:11:28;;;;;;;3.33;2.88;;;;;;;20.46;100.00;100423.75;5050400;28;20056;-83
2022/07/30 05:13:53;;;;;;;3.47;3.17;;;;;;;20.54;100.00;100424.34;5051415;28;20025;-83
2022/07/30 05:16:19;;;;;;;3.38;3.08;;;;;;;20.56;100.00;100426.78;5049846;28;20040;-83
2022/07/30 05:18:47;;;;;;;3.30;3.00;;;;;;;20.61;100.00;100424.31;5033317;28;20032;-83
2022/07/30 05:21:12;;;;;;;7.18;3.53;;;;;;;20.62;100.00;100425.13;5051338;28;20096;-83
2022/07/30 05:23:38;;;;;;;2.95;2.53;;;;;;;20.63;100.00;100426.75;5032025;28;20131;-84
2022/07/30 05:26:03;;;;;;;5.15;3.13;;;;;;;20.56;100.00;100423.31;5051153;28;20025;-83
2022/07/30 05:28:29;;;;;;;4.00;2.83;;;;;;;20.62;100.00;100419.81;5051169;28;20025;-85
2022/07/30 05:30:55;;;;;;;7.53;3.28;;;;;;;20.62;100.00;100419.81;5048413;28;20033;-83
2022/07/30 05:33:21;;;;;;;4.72;3.45;;;;;;;20.64;100.00;100417.78;5049850;28;20488;-83
2022/07/30 05:35:48;;;;;;;4.40;3.03;;;;;;;20.67;100.00;100426.13;5051032;28;20052;-83
2022/07/30 05:38:14;;;;;;;3.50;2.88;;;;;;;20.69;100.00;100429.38;5050965;28;20086;-82
2022/07/30 05:40:39;;;;;;;3.05;2.75;;;;;;;20.74;100.00;100429.53;5027498;28;20025;-82
2022/07/30 05:43:05;;;;;;;8.45;2.80;;;;;;;20.75;100.00;100425.06;5031006;28;20417;-83
2022/07/30 05:45:30;;;;;;;4.35;2.58;;;;;;;20.76;100.00;100421.41;5018595;28;20470;-83
2022/07/30 05:47:56;;;;;;;3.80;2.53;;;;;;;20.75;100.00;100425.88;5050974;28;20033;-82
2022/07/30 05:50:22;;;;;;;3.13;2.47;;;;;;;20.79;100.00;100420.97;5050883;28;20527;-83
2022/07/30 05:52:47;;;;;;;3.38;2.55;;;;;;;20.71;100.00;100429.16;5049784;28;20044;-82
2022/07/30 05:55:13;;;;;;;3.60;3.30;;;;;;;20.66;100.00;100434.28;5051105;28;20032;-83
2022/07/30 05:57:40;;;;;;;3.97;3.05;;;;;;;20.76;100.00;100432.78;5032576;28;20032;-82
2022/07/30 06:00:08;;;;;;;4.50;3.20;;;;;;;20.91;100.00;100434.31;5049559;28;20021;-84
2022/07/30 06:02:33;;;;;;;6.68;3.25;;;;;;;20.97;100.00;100434.28;5031427;28;20488;-83
2022/07/30 06:05:17;;;;;;;4.10;3.45;;;;;;;21.10;100.00;100425.47;5050650;28;20087;-82
2022/07/30 06:07:42;;;;;;;4.25;2.90;;;;;;;21.20;100.00;100439.84;5050592;28;20044;-83
2022/07/30 06:10:08;;;;;;;4.15;3.30;;;;;;;21.24;100.00;100434.97;5032939;28;20029;-84
2022/07/30 06:12:33;;;;;;;5.07;3.33;;;;;;;21.29;100.00;100434.31;5049139;28;22074;-83
2022/07/30 06:14:59;;;;;;;3.47;3.20;;;;;;;21.34;100.00;100429.97;5049980;28;20063;-83
2022/07/30 06:17:24;;;;;;;4.00;3.38;;;;;;;21.42;100.00;100439.50;5049302;28;20035;-83
2022/07/30 06:19:50;;;;;;;4.70;2.92;;;;;;;21.45;100.00;100431.94;5032476;28;20443;-83
2022/07/30 06:22:16;;;;;;;4.03;2.88;;;;;;;21.42;100.00;100429.72;5050635;28;20025;-83
2022/07/30 06:24:42;;;;;;;2.80;2.60;;;;;;;21.44;100.00;100440.91;5048990;28;20040;-83
2022/07/30 06:27:17;;;;;;;3.05;2.85;;;;;;;21.33;100.00;100443.44;5049970;28;20030;-85
2022/07/30 06:29:43;;;;;;;3.25;2.90;;;;;;;21.24;100.00;100445.56;5031668;28;20072;-83
2022/07/30 06:32:08;;;;;;;5.13;2.80;;;;;;;21.14;100.00;100453.16;5048675;28;20501;-84
2022/07/30 06:34:34;;;;;;;3.95;3.03;;;;;;;21.11;100.00;100453.56;5014401;28;20143;-85
2022/07/30 06:37:00;;;;;;;3.30;2.28;;;;;;;21.10;100.00;100446.66;5031206;28;20033;-84
2022/07/30 06:39:25;;;;;;;2.80;2.60;;;;;;;21.15;100.00;100452.13;5030680;28;20033;-84
2022/07/30 06:41:51;;;;;;;5.18;3.50;;;;;;;21.17;100.00;100450.06;5012310;28;20473;-83
2022/07/30 06:44:16;;;;;;;7.65;4.57;;;;;;;21.14;100.00;100455.78;5033650;28;20769;-83
2022/07/30 06:46:42;;;;;;;8.18;4.00;;;;;;;21.17;100.00;100456.19;5045027;28;20037;-84
2022/07/30 06:49:07;;;;;;;5.97;4.82;;;;;;;21.20;100.00;100457.59;5042846;28;20512;-83
2022/07/30 06:51:33;;;;;;;5.78;5.20;;;;;;;21.24;100.00;100456.16;5027690;28;20504;-84
2022/07/30 06:53:58;;;;;;;6.30;5.07;;;;;;;21.27;100.00;100458.38;5049633;28;20078;-82
2022/07/30 06:56:26;;;;;;;5.55;5.00;;;;;;;21.23;100.00;100449.25;5011131;28;20096;-83
2022/07/30 06:58:52;;;;;;;7.00;5.63;;;;;;;21.27;100.00;100447.75;5029463;28;20026;-82
2022/07/30 07:01:17;;;;;;;8.43;5.07;;;;;;;21.19;100.00;100453.31;5042523;28;20040;-84
2022/07/30 07:03:43;;;;;;;9.63;6.25;;;;;;;21.19;100.00;100448.00;5049029;28;20036;-82
2022/07/30 07:06:28;;;;;;;12.15;6.00;;;;;;;21.21;100.00;100451.28;5046582;28;20144;-83
2022/07/30 07:08:54;;;;;;;6.05;5.45;;;;;;;21.18;100.00;100441.91;5031110;28;20130;-82
2022/07/30 07:11:19;;;;;;;7.40;5.70;;;;;;;21.23;100.00;100443.94;5043826;28;20042;-84
2022/07/30 07:13:44;;;;;;;7.30;5.68;;;;;;;21.22;100.00;100442.31;5036337;28;20033;-80
2022/07/30 07:16:10;;;;;;;8.13;5.97;;;;;;;21.23;100.00;100443.13;5040349;28;20045;-82
2022/07/30 07:18:36;;;;;;;6.97;6.18;;;;;;;21.21;100.00;100440.69;5049146;28;20024;-81
2022/07/30 07:21:01;;;;;;;6.10;5.47;;;;;;;21.14;100.00;100439.91;5048869;28;20024;-80
2022/07/30 07:23:27;;;;;;;4.95;4.55;;;;;;;21.17;100.00;100436.81;5048734;28;20035;-81
2022/07/30 07:25:52;;;;;;;5.53;5.03;;;;;;;21.21;100.00;100435.41;5043153;28;20423;-81
2022/07/30 07:28:18;;;;;;;5.50;4.57;;;;;;;21.13;100.00;100444.38;5028409;28;20100;-80
2022/07/30 07:30:43;;;;;;;5.18;4.30;;;;;;;21.16;100.00;100438.66;5037427;28;20029;-80
2022/07/30 07:33:09;;;;;;;5.68;4.63;;;;;;;21.16;100.00;100443.16;5046788;28;20025;-81
2022/07/30 07:35:35;;;;;;;5.05;4.57;;;;;;;21.12;100.00;100436.66;5040817;28;20395;-81
2022/07/30 07:38:01;;;;;;;5.63;4.47;;;;;;;21.16;100.00;100432.53;5041963;28;20044;-81
2022/07/30 07:40:26;;;;;;;3.97;3.67;;;;;;;21.22;100.00;100442.31;5058358;28;20139;-81
2022/07/30 07:42:52;;;;;;;4.57;4.07;;;;;;;21.27;100.00;100450.41;5044628;28;20179;-80
2022/07/30 07:45:17;;;;;;;4.78;4.35;;;;;;;21.34;100.00;100447.72;5045216;28;20021;-81
2022/07/30 07:47:45;;;;;;;4.13;3.72;;;;;;;21.30;100.00;100452.63;5047626;28;20533;-80
2022/07/30 07:50:14;;;;;;;4.53;3.70;;;;;;;21.29;100.00;100452.84;5047267;28;20024;-79
2022/07/30 07:52:39;;;;;;;4.72;4.15;;;;;;;21.31;100.00;100461.41;5041212;28;20037;-80
2022/07/30 07:55:06;;;;;;;3.63;3.30;;;;;;;21.30;100.00;100467.72;5032565;28;20431;-79
2022/07/30 07:57:50;;;;;;;5.72;3.25;;;;;;;21.25;100.00;100473.69;5048182;28;20384;-80
2022/07/30 08:00:19;;;;;;;3.28;2.70;;;;;;;21.26;100.00;100477.16;5048102;28;20539;-80
2022/07/30 08:02:46;;;;;;;3.58;3.25;;;;;;;21.24;100.00;100482.66;5047242;28;20025;-81
2022/07/30 08:05:11;;;;;;;4.55;2.80;;;;;;;21.25;100.00;100479.00;5043241;28;20120;-80
2022/07/30 08:07:42;;;;;;;4.55;2.90;;;;;;;21.39;100.00;100483.16;5044185;28;20108;-80
2022/07/30 08:10:09;;;;;;;4.38;3.13;;;;;;;21.62;100.00;100484.44;5039836;28;20307;-79
2022/07/30 08:12:36;;;;;;;6.03;3.75;;;;;;;21.80;100.00;100487.09;5047482;28;20025;-81
2022/07/30 08:15:05;;;;;;;4.65;3.92;;;;;;;21.96;100.00;100489.22;5047709;28;20416;-81
2022/07/30 08:17:30;;;;;;;4.10;3.40;;;;;;;22.11;100.00;100487.06;5047624;28;20216;-79
2022/07/30 08:19:59;;;;;;;4.63;2.88;;;;;;;22.17;99.89;100493.34;5059798;28;20028;-80
2022/07/30 08:22:26;;;;;;;4.82;3.63;;;;;;;22.22;99.22;100501.44;5047211;28;20029;-81
2022/07/30 08:24:51;;;;;;;4.07;2.92;;;;;;;22.07;98.66;100504.44;5047639;28;20029;-80
2022/07/30 08:27:17;;;;;;;5.22;2.90;;;;;;;22.11;98.55;100492.38;5047994;28;20040;-81
2022/07/30 08:30:21;;;;;;;6.05;2.53;;;;;;;22.14;95.91;100501.75;5039340;28;20496;-81
2022/07/30 08:32:47;;;;;;;3.03;2.72;;;;;;;22.14;98.05;100494.59;5035094;28;20049;-81
2022/07/30 08:35:12;;;;;;;3.22;2.13;;;;;;;22.15;97.17;100506.81;5041900;28;20033;-81
2022/07/30 08:37:39;;;;;;;4.95;3.08;;;;;;;22.31;96.56;100505.41;5048012;28;20025;-81
2022/07/30 08:40:05;;;;;;;3.53;2.35;;;;;;;22.43;96.40;100502.84;5043513;28;20115;-80
2022/07/30 08:42:33;;;;;;;3.47;2.85;;;;;;;22.49;96.64;100507.28;5040526;28;20044;-81
2022/07/30 08:44:59;;;;;;;3.70;2.95;;;;;;;22.52;94.77;100501.53;5048948;28;20044;-81
2022/07/30 08:47:30;;;;;;;2.22;2.03;;;;;;;22.62;95.08;100504.47;5049591;28;20024;-81
2022/07/30 08:50:00;;;;;;;3.33;2.63;;;;;;;22.87;94.32;100511.56;5032279;28;20060;-81
2022/07/30 08:52:26;;;;;;;3.00;1.60;;;;;;;23.18;93.58;100516.63;5046962;28;20103;-79
2022/07/30 08:54:52;;;;;;;2.97;1.60;;;;;;;23.12;91.68;100502.44;5048109;28;20079;-80
2022/07/30 08:57:18;;;;;;;2.60;1.73;;;;;;;23.12;91.24;100507.75;5040931;28;20029;-80
2022/07/30 08:59:44;;;;;;;2.53;1.70;;;;;;;23.14;90.56;100504.88;5037745;28;20040;-81
2022/07/30 09:02:09;;;;;;;4.75;1.63;;;;;;;23.25;90.43;100498.75;5051327;28;20472;-80
2022/07/30 09:04:38;;;;;;;2.58;1.25;;;;;;;23.49;90.01;100497.78;5044080;28;20048;-78
2022/07/30 09:07:04;;;;;;;2.05;1.30;;;;;;;23.63;88.63;100508.25;5044453;28;20036;-83
2022/07/30 09:09:29;;;;;;;7.68;1.67;;;;;;;23.75;87.95;100506.41;5043566;28;20024;-81
2022/07/30 09:11:55;;;;;;;3.58;1.42;;;;;;;23.74;86.86;100507.44;5036941;28;20044;-80
2022/07/30 09:14:20;;;;;;;1.50;0.85;;;;;;;23.72;85.30;100506.84;5057585;28;20052;-83
2022/07/30 09:16:46;;;;;;;1.48;0.85;;;;;;;23.71;83.99;100505.22;5065961;28;20246;-78
2022/07/30 09:19:15;;;;;;;4.80;1.00;;;;;;;23.85;83.66;100509.28;5059932;28;20119;-82
2022/07/30 09:21:42;;;;;;;1.20;0.82;;;;;;;24.13;83.99;100509.41;5044548;28;20478;-80
2022/07/30 09:24:11;;;;;;;2.17;0.88;;;;;;;24.29;82.91;100496.47;5041959;28;20034;-84
2022/07/30 09:26:54;;;;;;;2.72;1.20;;;;;;;24.42;80.92;100504.19;5041876;28;20021;-83
2022/07/30 09:29:40;;;;;;;3.30;1.17;;;;;;;24.52;82.29;100498.28;5039876;28;20030;-82
2022/07/30 09:32:08;;;;;;;2.47;1.58;;;;;;;24.52;81.56;100501.75;5043562;28;20405;-80
2022/07/30 09:34:38;;;;;;;1.10;0.88;;;;;;;24.47;79.83;100504.31;5045291;28;20029;-82
2022/07/30 09:37:10;;;;;;;1.42;0.80;;;;;;;24.50;78.52;100509.16;5044811;28;20045;-84
2022/07/30 09:39:37;;;;;;;4.30;1.05;;;;;;;24.40;79.19;100508.94;5050754;28;20082;-84
2022/07/30 09:42:15;;;;;;;1.50;0.88;;;;;;;24.37;78.73;100504.09;5052366;28;20032;-83
2022/07/30 09:44:40;;;;;;;2.65;0.75;;;;;;;24.34;78.94;100507.22;5045215;28;20032;-84
2022/07/30 09:47:06;;;;;;;1.45;0.98;;;;;;;24.57;77.69;100503.72;5045878;28;20033;-84
2022/07/30 09:49:32;;;;;;;2.88;1.15;;;;;;;24.71;77.41;100507.72;5032835;28;20026;-83
2022/07/30 09:51:57;;;;;;;2.85;0.88;;;;;;;25.10;75.93;100508.75;5013336;28;20643;-82
2022/07/30 09:54:47;;;;;;;1.23;0.90;;;;;;;25.49;72.29;100500.91;5042828;28;20499;-80
2022/07/30 09:57:12;;;;;;;2.20;0.60;;;;;;;25.79;73.89;100506.75;5040271;28;20033;-80
2022/07/30 09:59:38;;;;;;;1.27;0.75;;;;;;;25.95;73.17;100500.59;5035355;28;20040;-82
2022/07/30 10:02:03;;;;;;;1.05;0.60;;;;;;;26.19;72.47;100511.06;5040176;28;20631;-82
2022/07/30 10:04:31;;;;;;;2.63;1.33;;;;;;;26.21;70.55;100504.41;5040002;28;20033;-81
2022/07/30 10:06:59;;;;;;;2.33;0.77;;;;;;;26.32;70.55;100502.72;5048139;28;20037;-81
2022/07/30 10:09:35;;;;;;;2.35;0.55;;;;;;;26.04;69.46;100499.09;5038217;28;20033;-81
2022/07/30 10:12:03;;;;;;;2.35;0.50;;;;;;;26.12;69.76;100501.34;5043566;28;20029;-81
2022/07/30 10:14:32;;;;;;;1.38;0.70;;;;;;;26.26;70.36;100506.34;5043323;28;20041;-82
2022/07/30 10:16:58;;;;;;;0.80;0.50;;;;;;;26.35;67.14;100496.88;5050628;28;20066;-82
2022/07/30 10:19:24;;;;;;;1.20;0.55;;;;;;;26.10;67.43;100498.13;5043403;28;20040;-79
2022/07/30 10:21:50;;;;;;;1.08;0.40;;;;;;;26.17;67.31;100494.47;5045488;28;20037;-78
2022/07/30 10:24:17;;;;;;;1.63;0.70;;;;;;;26.37;66.35;100489.44;5044869;28;20021;-81
2022/07/30 10:26:45;;;;;;;1.10;0.50;;;;;;;26.49;65.31;100487.44;5047798;28;20508;-79
2022/07/30 10:29:10;;;;;;;0.90;0.60;;;;;;;26.68;65.65;100491.41;5046773;28;20029;-81
2022/07/30 10:31:36;;;;;;;0.88;0.55;;;;;;;26.84;64.82;100495.06;5050330;28;20036;-79
2022/07/30 10:34:01;;;;;;;1.35;0.70;;;;;;;26.72;64.23;100494.38;5036671;28;20021;-83
2022/07/30 10:36:28;;;;;;;0.95;0.50;;;;;;;26.81;64.68;100486.75;5030427;28;20389;-82
2022/07/30 10:38:55;;;;;;;0.60;0.47;;;;;;;26.89;64.20;100483.63;5037866;28;20558;-84
2022/07/30 10:41:34;;;;;;;2.00;0.60;;;;;;;26.71;61.76;100480.22;5051658;28;20026;-82
2022/07/30 10:44:59;;;;;;;1.52;0.70;;;;;;;26.59;60.46;100482.22;5047798;28;20059;-83
2022/07/30 10:47:25;;;;;;;1.65;0.90;;;;;;;26.70;63.23;100472.44;4965427;28;20469;-81
2022/07/30 10:50:12;;;;;;;1.40;0.90;;;;;;;26.92;62.02;100473.22;4963246;28;20031;-81
2022/07/30 10:52:51;;;;;;;1.25;0.93;;;;;;;27.02;59.71;100469.84;4966703;28;20054;-82
2022/07/30 10:55:24;;;;;;;1.58;0.82;;;;;;;26.91;60.89;100476.16;4952788;28;20035;-83
2022/07/30 10:57:56;;;;;;;2.58;0.80;;;;;;;27.24;57.53;100481.31;4963380;28;20051;-81
2022/07/30 11:00:21;;;;;;;1.73;0.50;;;;;;;27.26;59.64;100479.19;4963590;28;20042;-84
2022/07/30 11:03:08;;;;;;;1.48;0.57;;;;;;;27.06;56.24;100476.31;4967771;28;20035;-80
2022/07/30 11:05:34;;;;;;;3.28;2.55;;;;;;;26.82;59.96;100472.31;4966782;28;20458;-79
2022/07/30 11:08:35;;;;;;;0.85;0.50;;;;;;;27.14;55.15;100473.19;4967969;28;20039;-83
2022/07/30 11:11:01;;;;;;;0.68;0.40;;;;;;;27.16;58.38;100467.59;4956386;28;20058;-80
2022/07/30 11:13:57;;;;;;;1.00;0.50;;;;;;;27.20;56.01;100468.69;4955985;28;20045;-79
2022/07/30 11:16:33;;;;;;;2.88;0.75;;;;;;;27.46;56.34;100462.47;4963007;28;20218;-80
2022/07/30 11:19:03;;;;;;;1.00;0.50;;;;;;;27.56;56.51;100461.75;5003181;28;20502;-82
2022/07/30 11:21:31;;;;;;;1.65;0.52;;;;;;;27.46;57.89;100454.47;5003931;28;20084;-81
2022/07/30 11:23:57;;;;;;;1.20;0.70;;;;;;;27.32;58.58;100455.97;5003920;28;20030;-80
2022/07/30 11:26:38;;;;;;;1.35;0.82;;;;;;;27.48;57.27;100451.53;5003101;28;20064;-81
2022/07/30 11:29:27;;;;;;;2.97;0.95;;;;;;;27.80;58.46;100460.38;5005823;28;20129;-80